Time;durP1;ratioP1;P1;durP2;ratioP2;P2;SDS_P1;SDS_P2;PMS_P1;PMS_P2;Temp;Humidity;BMP_temperature;BMP_pressure;BME280_temperature;BME280_humidity;BME280_pressure;Samples;Min_cycle;Max_cycle;Signal;HPM_P1;HPM_P2
2021/05/14 00:01:55;;;;;;;3.92;1.98;;;11.10;1.00;;;;;;4991037;28;20376;-80
2021/05/14 00:04:21;;;;;;;6.57;2.55;;;11.10;1.00;;;;;;4990763;28;20090;-80
2021/05/14 00:06:47;;;;;;;3.15;2.13;;;11.10;1.00;;;;;;4990918;28;20447;-80
2021/05/14 00:09:14;;;;;;;2.58;2.10;;;11.50;1.00;;;;;;4993048;28;20057;-79
2021/05/14 00:11:40;;;;;;;3.42;2.20;;;11.10;1.00;;;;;;4992148;28;20042;-79
2021/05/14 00:14:06;;;;;;;4.78;2.58;;;11.00;1.00;;;;;;4994127;28;20035;-80
2021/05/14 00:16:32;;;;;;;2.72;2.10;;;11.00;1.00;;;;;;4992212;28;20792;-80
2021/05/14 00:18:59;;;;;;;3.28;2.30;;;11.00;1.00;;;;;;4991530;28;20019;-80
2021/05/14 00:21:27;;;;;;;2.58;2.03;;;11.10;1.00;;;;;;4992245;28;20487;-80
2021/05/14 00:23:53;;;;;;;2.92;2.22;;;11.70;1.00;;;;;;4992096;28;20031;-80
2021/05/14 00:26:18;;;;;;;4.90;2.30;;;11.10;1.00;;;;;;4994101;28;20026;-80
2021/05/14 00:28:44;;;;;;;3.55;2.47;;;11.20;1.00;;;;;;4992028;28;20022;-80
2021/05/14 00:31:10;;;;;;;5.68;3.20;;;11.70;1.00;;;;;;4992123;28;20035;-79
2021/05/14 00:33:36;;;;;;;7.82;3.30;;;11.30;1.00;;;;;;4991334;28;20023;-79
2021/05/14 00:36:01;;;;;;;6.20;3.92;;;11.10;1.00;;;;;;4991830;28;20041;-80
2021/05/14 00:38:27;;;;;;;9.00;5.13;;;11.20;1.00;;;;;;4993034;28;20061;-80
2021/05/14 00:40:52;;;;;;;6.75;4.80;;;11.10;1.00;;;;;;4979583;28;20046;-80
2021/05/14 00:43:18;;;;;;;2.92;2.10;;;11.10;1.00;;;;;;4990534;28;20034;-79
2021/05/14 00:45:44;;;;;;;2.63;1.90;;;11.10;1.00;;;;;;4990153;28;20058;-80
2021/05/14 00:48:09;;;;;;;4.72;2.03;;;11.00;1.00;;;;;;4991026;28;20137;-80
2021/05/14 00:50:35;;;;;;;3.85;1.90;;;11.00;1.00;;;;;;4992050;28;20034;-80
2021/05/14 00:53:00;;;;;;;4.45;2.40;;;11.10;1.00;;;;;;4980137;28;20026;-80
2021/05/14 00:55:26;;;;;;;7.07;3.50;;;11.10;1.00;;;;;;4991577;28;20046;-79
2021/05/14 00:57:51;;;;;;;2.85;2.08;;;11.10;1.00;;;;;;4991007;28;20049;-80
2021/05/14 01:00:18;;;;;;;3.20;2.03;;;11.10;1.00;;;;;;4991458;28;20034;-80
2021/05/14 01:02:43;;;;;;;9.13;5.75;;;11.20;1.00;;;;;;4991022;28;20042;-80
2021/05/14 01:05:10;;;;;;;5.72;3.40;;;11.30;1.00;;;;;;4993903;28;20549;-79
2021/05/14 01:07:35;;;;;;;7.40;3.58;;;11.30;1.00;;;;;;4991141;28;20042;-79
2021/05/14 01:10:01;;;;;;;8.05;3.10;;;11.40;1.00;;;;;;4990842;28;20521;-80
2021/05/14 01:12:27;;;;;;;1.95;1.63;;;12.00;1.00;;;;;;4990676;28;20538;-80
2021/05/14 01:14:52;;;;;;;2.72;2.05;;;11.50;99.90;;;;;;4991430;28;20109;-81
2021/05/14 01:17:18;;;;;;;2.70;2.00;;;11.80;1.00;;;;;;4992655;28;20037;-80
2021/05/14 01:19:44;;;;;;;3.97;1.83;;;11.40;1.00;;;;;;4991248;28;20031;-80
2021/05/14 01:22:09;;;;;;;2.53;2.08;;;11.40;1.00;;;;;;4989547;28;20360;-80
2021/05/14 01:24:35;;;;;;;6.35;4.45;;;11.40;1.00;;;;;;4989613;28;20598;-80
2021/05/14 01:27:02;;;;;;;5.68;4.22;;;11.40;1.00;;;;;;4991245;28;20057;-80
2021/05/14 01:29:28;;;;;;;2.95;2.25;;;11.40;1.00;;;;;;4991986;28;20498;-80
2021/05/14 01:31:53;;;;;;;4.75;2.72;;;11.30;1.00;;;;;;4990829;28;20030;-80
2021/05/14 01:34:19;;;;;;;4.43;2.42;;;11.20;1.00;;;;;;4990992;28;20038;-79
2021/05/14 01:36:44;;;;;;;3.53;2.10;;;11.50;1.00;;;;;;4990597;28;20038;-80
2021/05/14 01:39:13;;;;;;;5.93;3.67;;;11.50;1.00;;;;;;4990696;28;20109;-80
2021/05/14 01:41:40;;;;;;;6.38;4.70;;;11.80;1.00;;;;;;4990990;28;20026;-79
2021/05/14 01:44:06;;;;;;;2.10;1.90;;;11.60;1.00;;;;;;4992543;28;20034;-80
2021/05/14 01:46:32;;;;;;;3.85;1.90;;;11.90;1.00;;;;;;4990235;28;20030;-80
2021/05/14 01:48:58;;;;;;;3.20;2.05;;;11.10;1.00;;;;;;4990408;28;20541;-80
2021/05/14 01:51:24;;;;;;;3.10;2.00;;;10.90;1.00;;;;;;4990382;28;20034;-80
2021/05/14 01:53:51;;;;;;;4.25;2.33;;;11.10;1.00;;;;;;4975484;28;20081;-79
2021/05/14 01:56:17;;;;;;;3.65;2.03;;;11.00;1.00;;;;;;4992443;28;20042;-79
2021/05/14 01:58:42;;;;;;;3.58;2.60;;;11.10;1.00;;;;;;4990136;28;20391;-80
2021/05/14 02:01:09;;;;;;;4.13;1.90;;;11.10;1.00;;;;;;4989246;28;20049;-80
2021/05/14 02:03:34;;;;;;;3.00;1.98;;;11.20;1.00;;;;;;4989199;28;20019;-79
2021/05/14 02:06:00;;;;;;;3.75;2.00;;;11.30;1.00;;;;;;4990199;28;20113;-80
2021/05/14 02:08:26;;;;;;;2.80;1.70;;;11.30;1.00;;;;;;4991907;28;20395;-78
2021/05/14 02:10:51;;;;;;;3.58;2.10;;;11.40;1.00;;;;;;4990731;28;20038;-80
2021/05/14 02:13:17;;;;;;;4.05;2.03;;;11.70;1.00;;;;;;4990193;28;20022;-80
2021/05/14 02:15:43;;;;;;;2.35;1.83;;;11.50;1.00;;;;;;4990199;28;20030;-80
2021/05/14 02:18:08;;;;;;;4.30;2.00;;;11.80;1.00;;;;;;4990181;28;20025;-80
2021/05/14 02:20:34;;;;;;;2.55;2.00;;;11.50;1.00;;;;;;4990680;28;20026;-80
2021/05/14 02:23:00;;;;;;;2.03;1.80;;;11.40;1.00;;;;;;4992074;28;20022;-79
2021/05/14 02:25:26;;;;;;;3.13;1.98;;;11.80;1.00;;;;;;4992808;28;20045;-79
2021/05/14 02:27:51;;;;;;;3.17;2.60;;;11.40;1.00;;;;;;4994026;28;20018;-79
2021/05/14 02:30:18;;;;;;;5.03;2.53;;;11.70;1.00;;;;;;4994303;28;20418;-79
2021/05/14 02:32:44;;;;;;;3.78;2.22;;;11.50;1.00;;;;;;4994112;28;20171;-79
2021/05/14 02:35:10;;;;;;;2.35;2.10;;;11.60;1.00;;;;;;4995774;28;20022;-79
2021/05/14 02:37:36;;;;;;;2.47;1.90;;;11.50;1.00;;;;;;4994257;28;20065;-79
2021/05/14 02:40:02;;;;;;;2.90;2.40;;;11.50;1.00;;;;;;4992629;28;20038;-79
2021/05/14 02:42:28;;;;;;;3.22;1.80;;;11.40;1.00;;;;;;4992198;28;20093;-79
2021/05/14 02:44:54;;;;;;;3.85;1.98;;;11.00;1.00;;;;;;4994135;28;20503;-80
2021/05/14 02:47:19;;;;;;;3.22;1.90;;;11.20;1.00;;;;;;4995902;28;20089;-79
2021/05/14 02:49:45;;;;;;;4.18;2.20;;;11.30;1.00;;;;;;4993718;28;20030;-79
2021/05/14 02:52:11;;;;;;;3.25;2.20;;;11.20;1.00;;;;;;4993686;28;20462;-79
2021/05/14 02:54:37;;;;;;;2.13;1.75;;;11.30;1.00;;;;;;4993634;28;20018;-79
2021/05/14 02:57:04;;;;;;;3.15;2.33;;;11.40;1.00;;;;;;4993767;28;20118;-79
2021/05/14 02:59:30;;;;;;;2.35;2.00;;;11.50;1.00;;;;;;4994499;28;20022;-79
2021/05/14 03:01:56;;;;;;;2.47;2.28;;;11.40;1.00;;;;;;4994925;28;20069;-79
2021/05/14 03:04:22;;;;;;;2.83;2.00;;;11.40;1.00;;;;;;4993408;28;20042;-79
2021/05/14 03:06:47;;;;;;;3.50;2.05;;;11.80;1.00;;;;;;4993419;28;20026;-79
2021/05/14 03:09:13;;;;;;;2.95;2.20;;;11.50;1.00;;;;;;4993346;28;20521;-80
2021/05/14 03:11:39;;;;;;;4.72;2.40;;;11.40;1.00;;;;;;4992859;28;20073;-79
2021/05/14 03:14:06;;;;;;;3.97;2.30;;;11.20;1.00;;;;;;4982556;28;20046;-79
2021/05/14 03:16:33;;;;;;;3.60;2.13;;;11.00;1.00;;;;;;4993637;28;20026;-79
2021/05/14 03:18:58;;;;;;;2.45;2.03;;;11.10;1.00;;;;;;4991873;28;20034;-79
2021/05/14 03:21:24;;;;;;;3.70;2.20;;;11.20;1.00;;;;;;4991891;28;20119;-79
2021/05/14 03:23:50;;;;;;;3.17;2.10;;;11.10;1.00;;;;;;4977842;28;20508;-80
2021/05/14 03:26:15;;;;;;;4.40;2.10;;;11.20;1.00;;;;;;4994984;28;20031;-79
2021/05/14 03:28:41;;;;;;;4.72;2.20;;;11.30;1.00;;;;;;4993175;28;20030;-79
2021/05/14 03:31:06;;;;;;;2.53;2.15;;;11.30;1.00;;;;;;4980079;28;20042;-79
2021/05/14 03:33:32;;;;;;;4.10;2.15;;;11.30;1.00;;;;;;4992890;28;20034;-79
2021/05/14 03:35:58;;;;;;;2.17;1.98;;;11.40;1.00;;;;;;4992836;28;20022;-79
2021/05/14 03:38:31;;;;;;;2.63;2.08;;;11.50;1.00;;;;;;4994438;28;20030;-79
2021/05/14 03:40:57;;;;;;;4.75;2.00;;;11.60;1.00;;;;;;4993763;28;20033;-79
2021/05/14 03:43:23;;;;;;;2.15;1.95;;;11.50;1.00;;;;;;4993127;28;20097;-79
2021/05/14 03:45:48;;;;;;;3.50;2.00;;;11.50;1.00;;;;;;4992708;28;20039;-79
2021/05/14 03:48:20;;;;;;;5.05;2.30;;;11.50;1.00;;;;;;4992502;28;20545;-80
2021/05/14 03:50:55;;;;;;;3.83;3.10;;;11.80;1.00;;;;;;4992654;28;20121;-79
2021/05/14 03:53:21;;;;;;;3.95;3.15;;;11.50;1.00;;;;;;4991095;28;20395;-79
2021/05/14 03:55:47;;;;;;;3.72;3.30;;;11.40;1.00;;;;;;4990963;28;20038;-80
2021/05/14 03:58:13;;;;;;;4.97;3.22;;;11.50;1.00;;;;;;4991278;28;20034;-80
2021/05/14 04:00:39;;;;;;;3.70;2.83;;;11.40;1.00;;;;;;4991113;28;20102;-80
2021/05/14 04:03:05;;;;;;;4.97;2.67;;;11.20;1.00;;;;;;4992740;28;20142;-80
2021/05/14 04:05:31;;;;;;;3.70;2.70;;;11.20;1.00;;;;;;4993367;28;20502;-80
2021/05/14 04:07:56;;;;;;;2.30;2.10;;;11.30;1.00;;;;;;4993898;28;20049;-80
2021/05/14 04:10:48;;;;;;;2.72;2.47;;;11.60;1.00;;;;;;4991712;28;20073;-80
2021/05/14 04:15:59;;;;;;;3.33;1.98;;;11.30;1.00;;;;;;4992376;28;20073;-80
2021/05/14 04:18:25;;;;;;;4.13;1.85;;;11.30;1.00;;;;;;4992433;28;20483;-79
2021/05/14 04:20:51;;;;;;;4.10;1.95;;;11.30;1.00;;;;;;4992271;28;20081;-80
2021/05/14 04:23:16;;;;;;;3.45;1.50;;;11.70;1.00;;;;;;4994054;28;20093;-80
2021/05/14 04:25:42;;;;;;;2.22;1.60;;;11.30;1.00;;;;;;4992022;28;20049;-80
2021/05/14 04:28:08;;;;;;;3.40;1.95;;;11.30;1.00;;;;;;4992253;28;20092;-80
2021/05/14 04:30:33;;;;;;;8.07;2.00;;;11.50;1.00;;;;;;4991797;28;20232;-79
2021/05/14 04:32:59;;;;;;;4.40;2.50;;;11.30;1.00;;;;;;4991959;28;20031;-80
2021/05/14 04:35:26;;;;;;;3.50;2.08;;;11.40;1.00;;;;;;4994187;28;20022;-79
2021/05/14 04:37:52;;;;;;;6.00;2.08;;;11.40;1.00;;;;;;4991414;28;20057;-80
2021/05/14 04:40:19;;;;;;;3.45;2.20;;;11.90;1.00;;;;;;4990201;28;20035;-80
2021/05/14 04:42:44;;;;;;;5.13;2.13;;;11.50;1.00;;;;;;4991661;28;20125;-80
2021/05/14 04:45:10;;;;;;;7.13;2.95;;;11.50;1.00;;;;;;4991620;28;20165;-80
2021/05/14 04:47:36;;;;;;;4.55;3.42;;;11.50;1.00;;;;;;4991410;28;20057;-80
2021/05/14 04:50:03;;;;;;;5.50;2.80;;;11.40;1.00;;;;;;4993413;28;20482;-80
2021/05/14 04:52:30;;;;;;;4.82;2.65;;;11.50;1.00;;;;;;4991799;28;20506;-79
2021/05/14 04:54:56;;;;;;;5.82;2.70;;;11.50;1.00;;;;;;4991253;28;20417;-80
2021/05/14 04:57:21;;;;;;;4.03;2.10;;;11.80;1.00;;;;;;4991254;28;20109;-80
2021/05/14 04:59:47;;;;;;;4.45;2.05;;;11.30;1.00;;;;;;4991272;28;20034;-80
2021/05/14 05:02:13;;;;;;;3.45;2.20;;;11.20;1.00;;;;;;4993311;28;20031;-79
2021/05/14 05:04:39;;;;;;;2.63;2.00;;;11.30;1.00;;;;;;4991572;28;20061;-79
2021/05/14 05:07:08;;;;;;;4.22;2.20;;;11.30;1.00;;;;;;4991506;28;20081;-80
2021/05/14 05:09:35;;;;;;;4.68;2.40;;;11.60;1.00;;;;;;4990606;28;20077;-79
2021/05/14 05:12:01;;;;;;;5.13;3.20;;;11.50;1.00;;;;;;4991101;28;20435;-80
2021/05/14 05:14:27;;;;;;;3.40;2.10;;;11.50;1.00;;;;;;4992671;28;20471;-80
2021/05/14 05:16:53;;;;;;;3.30;1.85;;;11.40;1.00;;;;;;4990847;28;20060;-79
2021/05/14 05:19:19;;;;;;;1.95;1.50;;;11.70;1.00;;;;;;4989672;28;20076;-80
2021/05/14 05:21:45;;;;;;;2.55;1.63;;;11.40;1.00;;;;;;4991245;28;20033;-79
2021/05/14 05:24:10;;;;;;;2.22;1.85;;;11.40;1.00;;;;;;4991012;28;20500;-79
2021/05/14 05:26:36;;;;;;;2.15;1.20;;;11.50;1.00;;;;;;4991291;28;20085;-80
2021/05/14 05:29:03;;;;;;;2.20;1.23;;;11.40;1.00;;;;;;4992529;28;20031;-80
2021/05/14 05:31:28;;;;;;;1.77;1.10;;;11.50;1.00;;;;;;4990720;28;20046;-80
2021/05/14 05:33:54;;;;;;;1.70;1.30;;;11.60;1.00;;;;;;4990944;28;20034;-79
2021/05/14 05:36:19;;;;;;;2.95;1.20;;;11.70;1.00;;;;;;4990779;28;20447;-79
2021/05/14 05:38:46;;;;;;;2.35;1.20;;;11.80;1.00;;;;;;4990298;28;20502;-79
2021/05/14 05:41:12;;;;;;;1.30;1.10;;;11.80;1.00;;;;;;4992670;28;20387;-79
2021/05/14 05:43:38;;;;;;;2.83;1.10;;;11.80;1.00;;;;;;4990380;28;20030;-80
2021/05/14 05:46:03;;;;;;;1.48;1.00;;;11.80;1.00;;;;;;4990414;28;20018;-79
2021/05/14 05:48:29;;;;;;;2.65;1.20;;;12.10;1.00;;;;;;4990794;28;20038;-80
2021/05/14 05:50:54;;;;;;;1.98;1.00;;;12.00;1.00;;;;;;4990498;28;20301;-80
2021/05/14 05:53:20;;;;;;;1.55;1.00;;;11.90;1.00;;;;;;4991774;28;20076;-81
2021/05/14 05:55:47;;;;;;;3.33;1.50;;;12.00;1.00;;;;;;4989328;28;20406;-79
2021/05/14 05:58:14;;;;;;;2.90;1.17;;;12.40;1.00;;;;;;4988643;28;20038;-80
2021/05/14 06:00:40;;;;;;;2.00;1.20;;;12.20;1.00;;;;;;4990376;28;20041;-80
2021/05/14 06:03:09;;;;;;;1.00;0.90;;;12.50;1.00;;;;;;4990715;28;20034;-79
2021/05/14 06:05:35;;;;;;;1.65;1.10;;;12.60;1.00;;;;;;4990356;28;20109;-80
2021/05/14 06:08:01;;;;;;;1.88;1.00;;;12.70;1.00;;;;;;4991808;28;20113;-79
2021/05/14 06:10:26;;;;;;;1.42;0.90;;;12.90;1.00;;;;;;4990165;28;20154;-80
2021/05/14 06:12:52;;;;;;;1.38;0.90;;;13.30;1.00;;;;;;4990476;28;20030;-79
2021/05/14 06:15:18;;;;;;;1.08;0.90;;;12.90;1.00;;;;;;4990215;28;20037;-79
2021/05/14 06:17:44;;;;;;;0.70;0.70;;;12.90;1.00;;;;;;4990515;28;20430;-79
2021/05/14 06:20:13;;;;;;;0.98;0.70;;;12.70;1.00;;;;;;4991804;28;20022;-79
2021/05/14 06:22:39;;;;;;;1.58;1.30;;;12.70;1.00;;;;;;4989894;28;20026;-79
2021/05/14 06:25:05;;;;;;;1.73;1.10;;;12.60;1.00;;;;;;4990317;28;20106;-79
2021/05/14 06:27:31;;;;;;;1.25;1.15;;;12.50;1.00;;;;;;4990176;28;20039;-78
2021/05/14 06:29:57;;;;;;;1.27;1.17;;;12.80;1.00;;;;;;4989949;28;20084;-79
2021/05/14 06:32:23;;;;;;;1.10;1.00;;;12.50;1.00;;;;;;4991933;28;20100;-79
2021/05/14 06:34:49;;;;;;;1.45;0.82;;;12.50;1.00;;;;;;4988240;28;20026;-80
2021/05/14 06:37:14;;;;;;;2.10;0.93;;;12.90;1.00;;;;;;4988487;28;20594;-80
2021/05/14 06:39:40;;;;;;;1.73;1.45;;;12.60;1.00;;;;;;4989939;28;20113;-81
2021/05/14 06:42:06;;;;;;;2.42;0.90;;;12.90;1.00;;;;;;4989801;28;20061;-81
2021/05/14 06:44:31;;;;;;;1.58;1.00;;;12.60;1.00;;;;;;4990838;28;20080;-81
2021/05/14 06:46:57;;;;;;;1.67;0.98;;;12.60;1.00;;;;;;4991242;28;20065;-81
2021/05/14 06:49:23;;;;;;;1.73;1.00;;;12.70;1.00;;;;;;4989576;28;20394;-81
2021/05/14 06:51:49;;;;;;;1.02;0.80;;;13.00;1.00;;;;;;4989819;28;20036;-80
2021/05/14 06:54:15;;;;;;;1.30;0.85;;;13.10;1.00;;;;;;4972811;28;20042;-81
2021/05/14 06:56:40;;;;;;;1.08;0.98;;;13.00;1.00;;;;;;4989534;28;20030;-79
2021/05/14 06:59:06;;;;;;;0.68;0.68;;;12.90;1.00;;;;;;4991701;28;20026;-79
2021/05/14 07:01:32;;;;;;;2.38;1.10;;;13.20;1.00;;;;;;4989384;28;20541;-79
2021/05/14 07:03:57;;;;;;;1.50;1.10;;;13.30;1.00;;;;;;4989183;28;20109;-79
2021/05/14 07:06:23;;;;;;;2.80;1.27;;;12.90;1.00;;;;;;4989632;28;20093;-79
2021/05/14 07:08:49;;;;;;;1.15;0.95;;;13.00;1.00;;;;;;4989570;28;20026;-79
2021/05/14 07:11:15;;;;;;;0.85;0.65;;;12.50;1.00;;;;;;4993651;28;20046;-78
2021/05/14 07:13:41;;;;;;;1.25;0.90;;;12.80;1.00;;;;;;4992300;28;20033;-80
2021/05/14 07:16:07;;;;;;;1.38;0.95;;;12.40;1.00;;;;;;4991464;28;20042;-80
2021/05/14 07:18:32;;;;;;;1.17;1.00;;;12.40;1.00;;;;;;4992304;28;20028;-80
2021/05/14 07:20:59;;;;;;;1.70;0.98;;;12.40;1.00;;;;;;4993537;28;20093;-80
2021/05/14 07:23:24;;;;;;;2.15;1.10;;;12.90;1.00;;;;;;4994506;28;20026;-80
2021/05/14 07:25:50;;;;;;;2.78;1.30;;;13.00;1.00;;;;;;4993471;28;20554;-80
2021/05/14 07:28:17;;;;;;;2.47;1.20;;;12.70;1.00;;;;;;4993130;28;20410;-79
2021/05/14 07:30:43;;;;;;;2.10;1.30;;;12.60;1.00;;;;;;4993152;28;20042;-79
2021/05/14 07:33:09;;;;;;;2.70;1.20;;;12.30;1.00;;;;;;4992464;28;20037;-79
2021/05/14 07:35:34;;;;;;;1.38;0.90;;;12.60;1.00;;;;;;4993279;28;20038;-79
2021/05/14 07:38:00;;;;;;;2.58;1.10;;;12.80;1.00;;;;;;4994803;28;20062;-79
2021/05/14 07:40:26;;;;;;;2.30;0.98;;;13.20;1.00;;;;;;4992550;28;20034;-79
2021/05/14 07:42:52;;;;;;;3.90;1.10;;;12.60;1.00;;;;;;4992638;28;20026;-80
2021/05/14 07:45:18;;;;;;;1.15;0.93;;;12.60;1.00;;;;;;4993110;28;20482;-80
2021/05/14 07:47:43;;;;;;;1.45;1.10;;;12.50;1.00;;;;;;4992386;28;20057;-79
2021/05/14 07:50:09;;;;;;;1.40;1.15;;;12.60;1.00;;;;;;4994592;28;20431;-80
2021/05/14 07:52:35;;;;;;;2.80;1.20;;;12.40;1.00;;;;;;4991239;28;20030;-80
2021/05/14 07:55:01;;;;;;;1.63;1.02;;;12.50;1.00;;;;;;4991213;28;20026;-80
2021/05/14 07:57:27;;;;;;;1.60;0.88;;;12.70;1.00;;;;;;4992765;28;20129;-80
2021/05/14 07:59:52;;;;;;;0.82;0.80;;;12.50;1.00;;;;;;4992812;28;20029;-80
2021/05/14 08:02:18;;;;;;;2.00;0.70;;;13.30;1.00;;;;;;4994145;28;20077;-80
2021/05/14 08:04:44;;;;;;;1.45;0.52;;;12.80;1.00;;;;;;4992108;28;20034;-80
2021/05/14 08:07:09;;;;;;;0.60;0.50;;;13.30;1.00;;;;;;4992996;28;20050;-80
2021/05/14 08:09:35;;;;;;;0.40;0.40;;;12.90;1.00;;;;;;4992205;28;20052;-80
2021/05/14 08:12:05;;;;;;;0.40;0.40;;;13.70;1.00;;;;;;4992092;28;20414;-79
2021/05/14 08:14:31;;;;;;;0.40;0.40;;;13.40;1.00;;;;;;4993531;28;20027;-80
2021/05/14 08:16:57;;;;;;;1.05;0.60;;;14.00;1.00;;;;;;4992838;28;20045;-80
2021/05/14 08:19:23;;;;;;;2.95;0.60;;;13.60;1.00;;;;;;4992123;28;20026;-80
2021/05/14 08:21:49;;;;;;;1.80;0.80;;;13.70;1.00;;;;;;4991305;28;20085;-80
2021/05/14 08:24:15;;;;;;;0.82;0.50;;;13.50;1.00;;;;;;4991833;28;20027;-80
2021/05/14 08:26:41;;;;;;;1.38;0.70;;;13.70;1.00;;;;;;4992336;28;20029;-79
2021/05/14 08:29:08;;;;;;;0.75;0.52;;;14.00;1.00;;;;;;4994268;28;20041;-80
2021/05/14 08:31:34;;;;;;;1.00;0.70;;;14.00;1.00;;;;;;4990029;28;20093;-80
2021/05/14 08:34:01;;;;;;;2.28;0.50;;;14.30;1.00;;;;;;4990356;28;20825;-80
2021/05/14 08:36:26;;;;;;;1.67;0.50;;;14.40;1.00;;;;;;4992043;28;20072;-80
2021/05/14 08:38:52;;;;;;;0.60;0.60;;;14.60;1.00;;;;;;4991861;28;20023;-80
2021/05/14 08:41:20;;;;;;;1.83;0.70;;;15.10;1.00;;;;;;4993687;28;20053;-79
2021/05/14 08:43:46;;;;;;;1.15;0.60;;;15.60;1.00;;;;;;4991402;28;20030;-81
2021/05/14 08:46:13;;;;;;;1.83;0.50;;;15.50;1.00;;;;;;4991278;28;20529;-79
2021/05/14 08:48:40;;;;;;;0.45;0.40;;;15.80;99.90;;;;;;4991700;28;20040;-79
2021/05/14 08:51:11;;;;;;;0.50;0.50;;;16.30;99.90;;;;;;4991313;28;20446;-79
2021/05/14 08:53:38;;;;;;;1.02;0.60;;;16.20;99.90;;;;;;4991898;28;20026;-80
2021/05/14 08:56:04;;;;;;;1.25;0.60;;;16.10;99.90;;;;;;4991230;28;20023;-79
2021/05/14 08:58:30;;;;;;;1.63;0.60;;;16.30;99.90;;;;;;4991173;28;20039;-79
2021/05/14 09:00:56;;;;;;;1.85;0.60;;;16.70;99.90;;;;;;4990540;28;20030;-79
2021/05/14 09:03:21;;;;;;;0.70;0.70;;;16.80;99.90;;;;;;4991675;28;20026;-79
2021/05/14 09:05:48;;;;;;;1.35;0.50;;;16.80;99.90;;;;;;4990784;28;20018;-81
2021/05/14 09:08:28;;;;;;;1.48;1.00;;;17.00;99.90;;;;;;4993422;28;20022;-82
2021/05/14 09:10:54;;;;;;;0.50;0.50;;;17.30;99.90;;;;;;4990181;28;20084;-81
2021/05/14 09:13:20;;;;;;;2.15;0.68;;;17.00;99.90;;;;;;4989614;28;20030;-81
2021/05/14 09:15:46;;;;;;;1.40;0.63;;;17.20;99.90;;;;;;4990991;28;20073;-81
2021/05/14 09:18:17;;;;;;;1.40;0.50;;;17.50;99.90;;;;;;4991266;28;20448;-81
2021/05/14 09:20:53;;;;;;;0.95;0.68;;;17.20;99.90;;;;;;4990300;28;20419;-81
2021/05/14 09:23:19;;;;;;;1.27;0.60;;;17.10;99.90;;;;;;4992250;28;20506;-81
2021/05/14 09:25:51;;;;;;;1.33;0.90;;;16.90;99.90;;;;;;4990791;28;20066;-81
2021/05/14 09:28:30;;;;;;;2.88;0.95;;;16.70;99.90;;;;;;4989978;28;20038;-80
2021/05/14 09:31:00;;;;;;;1.95;0.65;;;16.90;99.90;;;;;;4989845;28;20057;-81
2021/05/14 09:33:27;;;;;;;1.05;0.63;;;16.80;99.90;;;;;;4990707;28;20061;-81
2021/05/14 09:35:57;;;;;;;2.45;0.40;;;16.70;99.90;;;;;;4991038;28;20452;-82
2021/05/14 09:38:23;;;;;;;2.60;0.70;;;16.90;99.90;;;;;;4988803;28;20034;-81
2021/05/14 09:40:49;;;;;;;1.02;0.60;;;16.70;99.90;;;;;;4991034;28;20030;-81
2021/05/14 09:43:14;;;;;;;0.82;0.40;;;17.10;99.90;;;;;;4990018;28;20035;-79
2021/05/14 09:45:40;;;;;;;1.75;0.60;;;17.20;99.90;;;;;;4990854;28;20113;-81
2021/05/14 09:48:25;;;;;;;1.50;0.40;;;17.80;99.90;;;;;;4989101;28;20587;-81
2021/05/14 09:50:51;;;;;;;1.42;0.50;;;18.10;99.90;;;;;;4989343;28;20073;-82
2021/05/14 09:53:18;;;;;;;0.40;0.40;;;18.10;99.90;;;;;;4992482;28;20057;-81
2021/05/14 09:56:02;;;;;;;1.95;0.98;;;18.20;99.90;;;;;;4988192;28;20026;-82
2021/05/14 09:58:30;;;;;;;0.90;0.40;;;18.70;99.90;;;;;;4989645;28;20488;-80
2021/05/14 10:00:56;;;;;;;1.95;0.60;;;19.20;99.90;;;;;;4990400;28;20034;-80
2021/05/14 10:03:25;;;;;;;0.80;0.50;;;19.40;99.90;;;;;;4989698;28;20513;-80
2021/05/14 10:05:55;;;;;;;1.58;0.50;;;19.30;99.90;;;;;;4974721;28;20064;-78
2021/05/14 10:08:21;;;;;;;1.35;0.60;;;19.70;99.90;;;;;;4989052;28;20027;-79
2021/05/14 10:10:47;;;;;;;0.45;0.43;;;19.90;99.90;;;;;;4990254;28;20562;-78
2021/05/14 10:13:13;;;;;;;1.13;0.43;;;20.00;99.90;;;;;;4989757;28;20502;-79
2021/05/14 10:15:40;;;;;;;1.02;0.55;;;20.00;99.90;;;;;;4989871;28;20491;-79
2021/05/14 10:18:14;;;;;;;2.47;0.50;;;20.00;99.90;;;;;;4990410;28;20027;-80
2021/05/14 10:20:42;;;;;;;2.05;0.60;;;19.90;99.90;;;;;;4990357;28;20042;-79
2021/05/14 10:23:09;;;;;;;1.63;0.55;;;20.40;99.90;;;;;;4992846;28;20113;-79
2021/05/14 10:25:38;;;;;;;1.50;0.60;;;20.20;99.90;;;;;;4989624;28;20023;-79
2021/05/14 10:28:12;;;;;;;1.02;0.60;;;19.80;99.90;;;;;;4988455;28;20034;-79
2021/05/14 10:30:58;;;;;;;0.77;0.60;;;19.70;99.90;;;;;;4988435;28;20041;-82
2021/05/14 10:33:41;;;;;;;1.25;0.65;;;19.30;99.90;;;;;;4990480;28;20364;-83
2021/05/14 10:36:12;;;;;;;0.93;0.60;;;19.50;99.90;;;;;;4976748;28;20054;-83
2021/05/14 10:38:38;;;;;;;1.20;0.40;;;20.50;99.90;;;;;;4989911;28;20027;-83
2021/05/14 10:41:23;;;;;;;1.15;0.50;;;20.80;99.90;;;;;;4991543;28;20057;-81
2021/05/14 10:44:06;;;;;;;1.13;0.50;;;21.00;99.90;;;;;;4991040;28;20057;-83
2021/05/14 10:46:32;;;;;;;2.03;0.70;;;21.30;99.90;;;;;;4992893;28;20550;-84
2021/05/14 10:49:13;;;;;;;2.85;0.50;;;21.70;99.90;;;;;;4993647;28;20060;-80
2021/05/14 10:51:51;;;;;;;1.10;0.60;;;21.30;99.90;;;;;;4979288;28;20038;-85
2021/05/14 10:54:38;;;;;;;1.52;0.50;;;21.30;99.90;;;;;;4976682;28;20603;-86
2021/05/14 10:57:04;;;;;;;2.50;0.52;;;21.30;99.90;;;;;;4980005;28;20435;-84
2021/05/14 10:59:33;;;;;;;2.42;0.65;;;21.00;99.90;;;;;;4994512;28;20495;-83
2021/05/14 11:01:59;;;;;;;1.40;0.50;;;20.40;99.90;;;;;;4994768;28;20038;-83
2021/05/14 11:04:45;;;;;;;3.05;0.70;;;20.30;99.90;;;;;;4993232;28;20030;-82
2021/05/14 11:07:33;;;;;;;2.13;0.50;;;20.90;99.90;;;;;;4991154;28;20035;-80
2021/05/14 11:10:14;;;;;;;2.03;0.60;;;21.30;99.90;;;;;;4991565;28;20089;-80
2021/05/14 11:12:44;;;;;;;2.85;0.50;;;21.00;99.90;;;;;;4993378;28;20395;-81
2021/05/14 11:15:19;;;;;;;1.92;0.82;;;21.60;99.90;;;;;;4993287;28;20037;-82
2021/05/14 11:18:07;;;;;;;0.73;0.43;;;22.40;99.90;;;;;;4975993;28;20027;-82
2021/05/14 11:20:45;;;;;;;1.15;0.50;;;23.40;99.90;;;;;;4992151;28;20388;-82
2021/05/14 11:23:34;;;;;;;3.50;0.50;;;23.90;99.90;;;;;;4992844;28;20038;-79
2021/05/14 11:26:03;;;;;;;1.45;0.57;;;23.30;99.90;;;;;;4994549;28;20026;-80
2021/05/14 11:28:45;;;;;;;1.00;0.60;;;23.40;99.90;;;;;;4992519;28;20122;-80
2021/05/14 11:31:14;;;;;;;1.65;0.60;;;22.60;99.90;;;;;;4992708;28;20089;-79
2021/05/14 11:33:47;;;;;;;1.48;0.77;;;23.40;99.90;;;;;;4992789;28;20029;-80
2021/05/14 11:36:13;;;;;;;0.68;0.65;;;23.30;99.90;;;;;;4993153;28;20034;-80
2021/05/14 11:38:56;;;;;;;2.45;0.60;;;24.10;99.90;;;;;;4993154;28;20037;-80
2021/05/14 11:41:29;;;;;;;0.82;0.40;;;23.40;99.90;;;;;;4990928;28;20045;-81
2021/05/14 11:44:02;;;;;;;2.58;0.70;;;22.60;99.90;;;;;;4993594;28;20479;-79
2021/05/14 11:46:33;;;;;;;1.85;0.73;;;22.70;99.90;;;;;;4991144;28;20018;-79
2021/05/14 11:49:06;;;;;;;2.67;0.77;;;23.00;99.90;;;;;;4990048;28;20085;-78
2021/05/14 11:51:34;;;;;;;1.52;0.57;;;22.40;99.90;;;;;;4991242;28;20061;-78
2021/05/14 11:54:13;;;;;;;1.67;0.73;;;23.10;99.90;;;;;;4991010;28;20080;-81
2021/05/14 11:56:39;;;;;;;1.75;0.80;;;23.10;99.90;;;;;;4991595;28;20037;-82
2021/05/14 11:59:05;;;;;;;0.80;0.43;;;22.70;99.90;;;;;;4993201;28;20061;-80
2021/05/14 12:01:41;;;;;;;1.90;0.70;;;23.90;99.90;;;;;;4991712;28;20497;-80
2021/05/14 12:04:07;;;;;;;2.50;0.70;;;29.90;99.90;;;;;;4990516;28;20483;-81
2021/05/14 12:06:32;;;;;;;1.75;0.60;;;30.80;99.90;;;;;;4991571;28;20057;-80
2021/05/14 12:08:58;;;;;;;1.40;0.55;;;30.70;99.90;;;;;;4991169;28;20073;-80
2021/05/14 12:11:24;;;;;;;2.90;0.60;;;33.40;99.90;;;;;;4993132;28;20114;-80
2021/05/14 12:13:49;;;;;;;1.15;0.55;;;33.90;99.90;;;;;;4991337;28;20030;-80
2021/05/14 12:16:20;;;;;;;1.40;0.57;;;33.20;99.90;;;;;;4991290;28;20034;-80
2021/05/14 12:18:49;;;;;;;3.30;0.55;;;33.90;99.90;;;;;;4991099;28;20507;-80
2021/05/14 12:21:33;;;;;;;1.80;1.10;;;30.70;99.90;;;;;;4990959;28;20149;-81
2021/05/14 12:24:12;;;;;;;1.38;0.55;;;27.70;99.90;;;;;;4974903;28;20022;-80
2021/05/14 12:26:38;;;;;;;3.60;0.93;;;28.50;99.90;;;;;;4975865;28;20037;-80
2021/05/14 12:29:06;;;;;;;2.03;0.60;;;29.40;99.90;;;;;;4990920;28;20026;-80
2021/05/14 12:31:33;;;;;;;1.88;0.57;;;32.30;99.90;;;;;;4990632;28;20054;-80
2021/05/14 12:34:00;;;;;;;1.13;0.47;;;28.10;99.90;;;;;;4977483;28;20406;-80
2021/05/14 12:36:27;;;;;;;1.60;0.60;;;25.40;99.90;;;;;;4991358;28;20491;-81
2021/05/14 12:39:02;;;;;;;1.98;0.60;;;24.00;99.90;;;;;;4990506;28;20534;-80
2021/05/14 12:41:31;;;;;;;0.77;0.50;;;23.80;99.90;;;;;;4989174;28;20391;-80
2021/05/14 12:44:26;;;;;;;1.13;0.55;;;23.10;99.90;;;;;;4991666;28;20117;-80
2021/05/14 12:46:59;;;;;;;2.03;0.70;;;22.40;99.90;;;;;;4952752;28;671703;-80
2021/05/14 12:49:31;;;;;;;0.93;0.50;;;25.50;99.90;;;;;;4991621;28;20101;-80
2021/05/14 12:52:04;;;;;;;0.95;0.55;;;24.00;99.90;;;;;;4991341;28;20056;-80
2021/05/14 12:54:32;;;;;;;1.27;0.68;;;23.20;99.90;;;;;;4975672;28;20093;-80
2021/05/14 12:56:58;;;;;;;1.25;0.68;;;22.70;99.90;;;;;;4991729;28;20815;-80
2021/05/14 12:59:23;;;;;;;0.98;0.80;;;24.90;99.90;;;;;;4993365;28;20030;-80